createdAt,value
2023-05-16T00:00:52.808Z,44.30
2023-05-16T00:03:20.589Z,44.41
2023-05-16T00:05:50.347Z,44.30
2023-05-16T00:08:17.636Z,44.35
2023-05-16T00:10:44.506Z,44.29
2023-05-16T00:13:13.444Z,44.31
2023-05-16T00:15:40.628Z,44.16
2023-05-16T00:18:08.414Z,44.17
2023-05-16T00:20:37.330Z,44.08
2023-05-16T00:23:04.256Z,44.00
2023-05-16T00:25:31.447Z,44.02
2023-05-16T00:27:58.406Z,44.10
2023-05-16T00:30:25.528Z,43.98
2023-05-16T00:32:55.503Z,43.89
2023-05-16T00:35:23.759Z,44.00
2023-05-16T00:37:50.768Z,44.09
2023-05-16T00:40:18.259Z,44.18
2023-05-16T00:42:48.128Z,44.34
2023-05-16T00:45:15.000Z,44.42
2023-05-16T00:47:41.941Z,44.46
2023-05-16T00:50:09.577Z,44.53
2023-05-16T00:52:37.473Z,44.66
2023-05-16T00:55:05.366Z,44.77
2023-05-16T00:57:33.056Z,44.78
2023-05-16T00:59:59.964Z,45.07
2023-05-16T01:02:28.592Z,45.34
2023-05-16T01:04:56.303Z,45.48
2023-05-16T01:07:23.383Z,45.75
2023-05-16T01:09:50.924Z,45.91
2023-05-16T01:12:21.238Z,46.04
2023-05-16T01:14:56.793Z,46.16
2023-05-16T01:17:38.925Z,46.17
2023-05-16T01:20:15.124Z,46.30
2023-05-16T01:23:13.250Z,46.40
2023-05-16T01:26:11.406Z,46.50
2023-05-16T01:28:39.601Z,46.64
2023-05-16T01:31:06.420Z,46.58
2023-05-16T01:33:33.630Z,46.57
2023-05-16T01:36:26.090Z,46.48
2023-05-16T01:39:11.933Z,46.44
2023-05-16T01:41:38.698Z,46.50
2023-05-16T01:44:10.213Z,46.37
2023-05-16T01:46:38.663Z,46.46
2023-05-16T01:49:35.306Z,46.48
2023-05-16T01:52:08.063Z,46.52
2023-05-16T01:54:36.874Z,46.47
2023-05-16T01:57:04.254Z,46.60
2023-05-16T01:59:31.878Z,46.67
2023-05-16T02:01:58.884Z,46.68
2023-05-16T02:04:25.892Z,46.71
2023-05-16T02:06:52.701Z,46.96
2023-05-16T02:09:19.646Z,47.09
2023-05-16T02:11:46.730Z,47.14
2023-05-16T02:14:13.701Z,47.32
2023-05-16T02:16:40.639Z,47.50
2023-05-16T02:19:07.439Z,47.69
2023-05-16T02:21:35.107Z,47.81
2023-05-16T02:24:01.895Z,47.92
2023-05-16T02:26:28.996Z,48.01
2023-05-16T02:28:55.832Z,48.11
2023-05-16T02:31:30.110Z,48.15
2023-05-16T02:33:58.169Z,48.20
2023-05-16T02:36:25.133Z,48.15
2023-05-16T02:38:52.326Z,48.12
2023-05-16T02:41:22.857Z,47.98
2023-05-16T02:43:49.682Z,47.85
2023-05-16T02:46:24.567Z,47.87
2023-05-16T02:48:51.602Z,47.91
2023-05-16T02:51:20.371Z,47.84
2023-05-16T02:53:47.315Z,47.55
2023-05-16T02:56:14.607Z,47.14
2023-05-16T02:58:41.857Z,46.96
2023-05-16T03:01:09.603Z,46.74
2023-05-16T03:03:37.250Z,46.62
2023-05-16T03:06:04.197Z,46.44
2023-05-16T03:08:33.321Z,46.32
2023-05-16T03:11:00.371Z,46.24
2023-05-16T03:13:30.509Z,46.05
2023-05-16T03:15:59.213Z,46.02
2023-05-16T03:18:26.202Z,45.90
2023-05-16T03:20:53.106Z,46.02
2023-05-16T03:23:20.710Z,46.04
2023-05-16T03:25:49.096Z,46.01
2023-05-16T03:28:18.098Z,46.01
2023-05-16T03:30:45.248Z,45.92
2023-05-16T03:33:12.207Z,45.92
2023-05-16T03:35:39.018Z,45.81
2023-05-16T03:38:05.995Z,45.70
2023-05-16T03:40:33.104Z,45.62
2023-05-16T03:43:00.037Z,45.36
2023-05-16T03:45:27.226Z,45.04
2023-05-16T03:47:54.344Z,44.81
2023-05-16T03:50:21.455Z,44.51
2023-05-16T03:52:48.513Z,44.34
2023-05-16T03:55:17.561Z,43.90
2023-05-16T03:57:44.684Z,43.90
2023-05-16T04:00:12.238Z,43.66
2023-05-16T04:02:43.479Z,43.62
2023-05-16T04:05:11.058Z,43.45
2023-05-16T04:07:40.482Z,43.34
2023-05-16T04:10:09.368Z,43.20
2023-05-16T04:12:36.493Z,42.94
2023-05-16T04:15:05.136Z,43.08
2023-05-16T04:17:33.254Z,42.81
2023-05-16T04:20:00.637Z,42.84
2023-05-16T04:22:27.470Z,42.60
2023-05-16T04:24:54.513Z,42.51
2023-05-16T04:27:21.361Z,42.48
2023-05-16T04:29:48.135Z,42.17
2023-05-16T04:32:17.066Z,41.40
2023-05-16T04:34:46.120Z,40.38
2023-05-16T04:37:13.040Z,39.29
2023-05-16T04:39:40.503Z,38.67
2023-05-16T04:42:10.179Z,38.45
2023-05-16T04:44:37.400Z,38.28
2023-05-16T04:47:04.413Z,37.73
2023-05-16T04:49:31.250Z,37.52
2023-05-16T04:51:58.641Z,37.48
2023-05-16T04:54:26.004Z,37.26
2023-05-16T04:56:52.772Z,37.48
2023-05-16T04:59:20.204Z,37.01
2023-05-16T05:01:47.086Z,36.80
2023-05-16T05:04:13.895Z,36.36
2023-05-16T05:06:40.778Z,36.46
2023-05-16T05:09:07.619Z,36.06
2023-05-16T05:11:35.136Z,35.98
2023-05-16T05:14:03.249Z,36.18
2023-05-16T05:16:30.583Z,35.85
2023-05-16T05:18:57.858Z,35.83
2023-05-16T05:21:24.947Z,35.60
2023-05-16T05:23:51.870Z,35.35
2023-05-16T05:26:18.671Z,35.07
2023-05-16T05:28:53.966Z,35.15
2023-05-16T05:31:24.276Z,34.99
2023-05-16T05:33:51.218Z,35.13
2023-05-16T05:36:17.965Z,35.23
2023-05-16T05:38:45.376Z,35.09
2023-05-16T05:41:12.465Z,35.19
2023-05-16T05:43:39.359Z,35.37
2023-05-16T05:46:06.855Z,35.39
2023-05-16T05:48:33.751Z,35.29
2023-05-16T05:51:00.623Z,35.04
2023-05-16T05:53:27.504Z,34.74
2023-05-16T05:55:54.289Z,34.70
2023-05-16T05:58:21.249Z,34.67
2023-05-16T06:00:48.344Z,34.69
2023-05-16T06:03:16.080Z,34.79
2023-05-16T06:05:43.430Z,34.94
2023-05-16T06:08:10.757Z,35.14
2023-05-16T06:10:37.727Z,35.65
2023-05-16T06:13:04.717Z,36.16
2023-05-16T06:15:31.621Z,36.30
2023-05-16T06:17:58.905Z,36.95
2023-05-16T06:20:26.035Z,37.69
2023-05-16T06:22:52.986Z,37.72
2023-05-16T06:25:20.086Z,38.01
2023-05-16T06:27:46.918Z,37.89
2023-05-16T06:30:13.873Z,38.38
2023-05-16T06:32:41.027Z,38.58
2023-05-16T06:35:09.192Z,38.43
2023-05-16T06:37:36.435Z,38.44
2023-05-16T06:40:04.624Z,38.92
2023-05-16T06:42:31.912Z,39.39
2023-05-16T06:44:59.532Z,39.73
2023-05-16T06:47:26.497Z,39.96
2023-05-16T06:49:53.368Z,40.10
2023-05-16T06:52:20.931Z,40.28
2023-05-16T06:54:47.781Z,41.04
2023-05-16T06:57:14.889Z,41.63
2023-05-16T06:59:42.655Z,42.19
2023-05-16T07:02:09.564Z,42.80
2023-05-16T07:04:37.498Z,42.51
2023-05-16T07:07:07.199Z,42.51
2023-05-16T07:09:34.741Z,42.74
2023-05-16T07:12:01.575Z,42.42
2023-05-16T07:14:28.883Z,42.21
2023-05-16T07:16:55.866Z,42.24
2023-05-16T07:19:28.377Z,42.12
2023-05-16T07:21:56.083Z,41.80
2023-05-16T07:24:23.197Z,41.53
2023-05-16T07:26:50.706Z,41.19
2023-05-16T07:29:18.147Z,40.76
2023-05-16T07:31:45.495Z,40.47
2023-05-16T07:34:12.536Z,40.44
2023-05-16T07:36:42.388Z,40.19
2023-05-16T07:39:09.845Z,39.83
2023-05-16T07:41:37.037Z,39.46
2023-05-16T07:44:03.953Z,39.40
2023-05-16T07:46:31.355Z,39.07
2023-05-16T07:48:58.235Z,38.52
2023-05-16T07:51:25.260Z,38.53
2023-05-16T07:53:52.130Z,38.53
2023-05-16T07:56:19.351Z,38.35
2023-05-16T07:58:48.400Z,38.12
2023-05-16T08:01:15.493Z,38.06
2023-05-16T08:03:42.498Z,37.92
2023-05-16T08:06:10.194Z,37.57
2023-05-16T08:08:37.701Z,37.74
2023-05-16T08:11:05.253Z,37.86
2023-05-16T08:13:35.593Z,38.14
2023-05-16T08:16:02.602Z,38.11
2023-05-16T08:18:30.385Z,38.36
2023-05-16T08:20:57.422Z,39.12
2023-05-16T08:23:24.421Z,39.61
2023-05-16T08:25:51.362Z,40.33
2023-05-16T08:28:22.035Z,40.86
2023-05-16T08:30:49.358Z,41.79
2023-05-16T08:33:16.702Z,42.53
2023-05-16T08:35:43.835Z,43.76
2023-05-16T08:38:10.902Z,45.00
2023-05-16T08:40:39.538Z,45.78
2023-05-16T08:43:06.772Z,46.18
2023-05-16T08:45:35.296Z,46.67
2023-05-16T08:48:03.339Z,46.97
2023-05-16T08:50:31.391Z,47.53
2023-05-16T08:53:06.848Z,47.57
2023-05-16T08:55:35.498Z,47.67
2023-05-16T08:58:03.181Z,47.40
2023-05-16T09:00:31.291Z,47.26
2023-05-16T09:02:58.295Z,47.09
2023-05-16T09:05:25.599Z,46.68
2023-05-16T09:07:53.455Z,46.44
2023-05-16T09:10:20.728Z,45.65
2023-05-16T09:12:47.680Z,45.26
2023-05-16T09:15:16.830Z,44.29
2023-05-16T09:17:45.922Z,43.26
2023-05-16T09:20:17.272Z,42.73
2023-05-16T09:22:52.251Z,42.32
2023-05-16T09:25:29.547Z,41.68
2023-05-16T09:27:58.973Z,40.92
2023-05-16T09:30:34.284Z,40.03
2023-05-16T09:33:01.968Z,39.51
2023-05-16T09:37:59.348Z,38.89
2023-05-16T09:40:26.643Z,38.84
2023-05-16T09:43:05.150Z,39.09
2023-05-16T09:45:33.657Z,39.01
2023-05-16T09:48:04.388Z,38.81
2023-05-16T09:50:36.128Z,38.68
2023-05-16T09:53:03.522Z,38.49
2023-05-16T09:55:30.888Z,38.25
2023-05-16T09:57:57.960Z,38.28
2023-05-16T10:00:32.903Z,38.23
2023-05-16T10:03:03.482Z,37.65
2023-05-16T10:05:32.370Z,37.48
2023-05-16T10:07:59.672Z,37.01
2023-05-16T10:10:26.662Z,37.16
2023-05-16T10:12:53.778Z,37.47
2023-05-16T10:15:21.635Z,37.45
2023-05-16T10:17:52.023Z,37.34
2023-05-16T10:20:18.953Z,36.49
2023-05-16T10:22:46.188Z,36.16
2023-05-16T10:25:29.729Z,35.40
2023-05-16T10:27:57.919Z,34.91
2023-05-16T10:30:25.046Z,33.97
2023-05-16T10:32:52.341Z,33.02
2023-05-16T10:35:20.740Z,32.42
2023-05-16T10:37:48.667Z,31.99
2023-05-16T10:40:16.365Z,31.88
2023-05-16T10:43:04.419Z,31.80
2023-05-16T10:45:32.267Z,30.94
2023-05-16T10:48:01.508Z,30.31
2023-05-16T10:50:41.693Z,30.31
2023-05-16T10:53:32.115Z,30.81
2023-05-16T10:55:59.190Z,30.59
2023-05-16T10:58:38.580Z,30.82
2023-05-16T11:01:29.606Z,31.16
2023-05-16T11:03:57.177Z,31.37
2023-05-16T11:06:27.243Z,31.77
2023-05-16T11:09:07.298Z,31.95
2023-05-16T11:12:09.013Z,32.08
2023-05-16T11:14:38.572Z,32.21
2023-05-16T11:17:20.265Z,32.67
2023-05-16T11:19:59.284Z,32.83
2023-05-16T11:22:28.596Z,32.74
2023-05-16T11:25:08.990Z,32.47
2023-05-16T11:27:45.356Z,32.66
2023-05-16T11:30:13.884Z,32.37
2023-05-16T11:32:43.399Z,32.32
2023-05-16T11:35:25.871Z,32.47
2023-05-16T11:37:53.236Z,31.98
2023-05-16T11:40:20.169Z,31.87
2023-05-16T11:42:47.890Z,32.01
2023-05-16T11:45:16.904Z,32.02
2023-05-16T11:47:44.827Z,31.80
2023-05-16T11:50:19.130Z,32.13
2023-05-16T11:52:56.659Z,32.29
2023-05-16T11:55:40.377Z,32.46
2023-05-16T11:58:09.727Z,32.22
2023-05-16T12:00:37.375Z,32.26
2023-05-16T12:03:05.465Z,32.18
2023-05-16T12:05:34.278Z,32.13
2023-05-16T12:08:02.229Z,31.92
2023-05-16T12:10:31.043Z,31.94
2023-05-16T12:12:58.431Z,31.97
2023-05-16T12:15:25.700Z,32.04
2023-05-16T12:17:54.022Z,32.08
2023-05-16T12:20:21.053Z,31.94
2023-05-16T12:22:48.070Z,31.94
2023-05-16T12:25:34.434Z,32.24
2023-05-16T12:28:02.609Z,32.24
2023-05-16T12:30:31.898Z,32.02
2023-05-16T12:33:00.442Z,32.37
2023-05-16T12:35:32.046Z,32.21
2023-05-16T12:38:00.105Z,32.08
2023-05-16T12:40:30.940Z,32.56
2023-05-16T12:42:58.430Z,32.34
2023-05-16T12:45:27.437Z,32.60
2023-05-16T12:47:54.608Z,32.39
2023-05-16T12:50:22.461Z,32.60
2023-05-16T12:52:54.703Z,33.10
2023-05-16T12:55:22.056Z,33.17
2023-05-16T12:57:49.345Z,33.49
2023-05-16T13:00:21.441Z,33.42
2023-05-16T13:02:49.074Z,33.59
2023-05-16T13:05:17.536Z,33.53
2023-05-16T13:07:44.655Z,33.57
2023-05-16T13:10:13.517Z,33.67
2023-05-16T13:12:42.548Z,33.69
2023-05-16T13:15:11.450Z,33.84
2023-05-16T13:17:38.906Z,33.80
2023-05-16T13:20:09.828Z,33.90
2023-05-16T13:22:37.179Z,34.12
2023-05-16T13:25:05.657Z,34.23
2023-05-16T13:27:32.872Z,34.41
2023-05-16T13:29:59.920Z,34.64
2023-05-16T13:32:27.242Z,34.53
2023-05-16T13:34:54.973Z,34.51
2023-05-16T13:37:23.977Z,34.53
2023-05-16T13:39:53.294Z,34.36
2023-05-16T13:42:20.867Z,34.11
2023-05-16T13:44:48.005Z,34.25
2023-05-16T13:47:15.612Z,34.39
2023-05-16T13:49:42.620Z,34.41
2023-05-16T13:52:09.698Z,34.28
2023-05-16T13:54:36.917Z,34.25
2023-05-16T13:57:04.322Z,34.15
2023-05-16T14:00:03.450Z,34.00
2023-05-16T14:02:19.948Z,34.03
2023-05-16T14:04:49.057Z,33.73
2023-05-16T14:07:17.902Z,33.75
2023-05-16T14:09:45.529Z,34.07
2023-05-16T14:12:12.503Z,34.12
2023-05-16T14:14:39.637Z,34.02
2023-05-16T14:17:07.296Z,33.85
2023-05-16T14:19:34.448Z,33.71
2023-05-16T14:22:01.478Z,33.82
2023-05-16T14:24:28.559Z,33.76
2023-05-16T14:26:55.896Z,33.60
2023-05-16T14:29:23.884Z,33.49
2023-05-16T14:31:50.967Z,33.66
2023-05-16T14:34:19.685Z,33.91
2023-05-16T14:36:46.715Z,33.83
2023-05-16T14:39:13.761Z,34.11
2023-05-16T14:41:41.891Z,33.87
2023-05-16T14:44:09.340Z,33.80
2023-05-16T14:46:36.455Z,33.97
2023-05-16T14:49:04.996Z,34.14
2023-05-16T14:51:32.102Z,34.24
2023-05-16T14:53:59.200Z,34.23
2023-05-16T14:56:27.758Z,34.27
2023-05-16T14:58:54.732Z,34.39
2023-05-16T15:01:22.216Z,34.44
2023-05-16T15:03:55.415Z,34.68
2023-05-16T15:06:24.133Z,34.99
2023-05-16T15:08:51.629Z,35.06
2023-05-16T15:11:18.961Z,35.12
2023-05-16T15:13:46.304Z,35.05
2023-05-16T15:16:13.366Z,35.21
2023-05-16T15:18:41.259Z,35.24
2023-05-16T15:21:08.627Z,34.83
2023-05-16T15:23:36.207Z,35.03
2023-05-16T15:26:03.666Z,35.06
2023-05-16T15:28:30.829Z,35.05
2023-05-16T15:30:57.879Z,35.32
2023-05-16T15:33:25.200Z,35.19
2023-05-16T15:35:52.587Z,35.28
2023-05-16T15:38:22.869Z,35.24
2023-05-16T15:40:55.217Z,35.13
2023-05-16T15:43:25.433Z,35.34
2023-05-16T15:45:52.452Z,35.27
2023-05-16T15:48:19.773Z,35.17
2023-05-16T15:50:46.761Z,35.58
2023-05-16T15:53:13.671Z,35.72
2023-05-16T15:55:40.706Z,35.81
2023-05-16T15:58:07.923Z,36.15
2023-05-16T16:00:38.988Z,36.32
2023-05-16T16:03:06.687Z,36.36
2023-05-16T16:05:34.335Z,36.37
2023-05-16T16:08:01.694Z,36.53
2023-05-16T16:10:31.017Z,36.74
2023-05-16T16:13:02.078Z,36.56
2023-05-16T16:15:32.812Z,36.77
2023-05-16T16:18:00.712Z,36.96
2023-05-16T16:20:27.834Z,36.73
2023-05-16T16:23:04.911Z,36.99
2023-05-16T16:25:32.195Z,37.22
2023-05-16T16:27:59.608Z,37.19
2023-05-16T16:30:27.451Z,37.42
2023-05-16T16:32:54.524Z,37.79
2023-05-16T16:35:25.227Z,37.97
2023-05-16T16:38:05.706Z,38.06
2023-05-16T16:40:34.363Z,38.29
2023-05-16T16:43:01.394Z,38.61
2023-05-16T16:45:29.485Z,38.50
2023-05-16T16:47:57.994Z,38.51
2023-05-16T16:50:25.198Z,38.51
2023-05-16T16:52:53.460Z,38.60
2023-05-16T16:55:20.784Z,38.70
2023-05-16T16:57:47.739Z,38.94
2023-05-16T17:00:15.028Z,39.25
2023-05-16T17:02:42.265Z,39.34
2023-05-16T17:05:09.627Z,39.40
2023-05-16T17:07:37.219Z,39.57
2023-05-16T17:10:04.954Z,39.76
2023-05-16T17:12:34.422Z,39.81
2023-05-16T17:15:02.031Z,39.79
2023-05-16T17:17:29.570Z,40.05
2023-05-16T17:19:56.551Z,40.13
2023-05-16T17:22:23.472Z,40.30
2023-05-16T17:24:51.701Z,40.50
2023-05-16T17:27:18.951Z,40.74
2023-05-16T17:29:45.983Z,40.90
2023-05-16T17:32:12.971Z,40.81
2023-05-16T17:34:42.475Z,40.73
2023-05-16T17:37:10.177Z,40.90
2023-05-16T17:39:39.856Z,40.92
2023-05-16T17:42:08.938Z,41.08
2023-05-16T17:44:36.330Z,40.94
2023-05-16T17:47:05.066Z,41.18
2023-05-16T17:49:32.340Z,41.16
2023-05-16T17:52:00.261Z,41.29
2023-05-16T17:54:30.598Z,41.40
2023-05-16T17:56:57.862Z,41.43
2023-05-16T17:59:26.935Z,41.29
2023-05-16T18:01:55.616Z,41.53
2023-05-16T18:04:23.532Z,41.79
2023-05-16T18:06:54.013Z,41.93
2023-05-16T18:09:21.466Z,41.96
2023-05-16T18:11:49.976Z,42.14
2023-05-16T18:14:17.036Z,42.15
2023-05-16T18:16:44.071Z,42.21
2023-05-16T18:19:13.894Z,42.33
2023-05-16T18:21:44.558Z,42.21
2023-05-16T18:24:15.415Z,42.52
2023-05-16T18:26:43.863Z,42.72
2023-05-16T18:29:10.859Z,42.73
2023-05-16T18:31:40.714Z,42.60
2023-05-16T18:34:11.613Z,42.62
2023-05-16T18:36:38.682Z,42.87
2023-05-16T18:39:06.648Z,43.01
2023-05-16T18:41:34.135Z,43.30
2023-05-16T18:44:01.164Z,43.56
2023-05-16T18:46:28.818Z,43.74
2023-05-16T18:48:57.401Z,43.92
2023-05-16T18:51:24.681Z,43.99
2023-05-16T18:53:52.036Z,44.07
2023-05-16T18:56:18.972Z,44.28
2023-05-16T18:58:46.878Z,44.41
2023-05-16T19:01:14.001Z,44.35
2023-05-16T19:03:41.118Z,44.54
2023-05-16T19:06:11.489Z,44.63
2023-05-16T19:08:47.454Z,44.73
2023-05-16T19:11:18.408Z,44.56
2023-05-16T19:13:45.861Z,44.86
2023-05-16T19:16:12.962Z,45.06
2023-05-16T19:18:40.853Z,45.25
2023-05-16T19:21:09.724Z,45.45
2023-05-16T19:23:41.181Z,45.57
2023-05-16T19:26:08.284Z,45.69
2023-05-16T19:28:37.423Z,45.88
2023-05-16T19:31:09.797Z,45.94
2023-05-16T19:33:37.683Z,45.99
2023-05-16T19:36:05.470Z,45.94
2023-05-16T19:38:32.576Z,46.10
2023-05-16T19:41:01.866Z,46.07
2023-05-16T19:43:29.260Z,46.28
2023-05-16T19:45:56.173Z,46.43
2023-05-16T19:48:23.917Z,46.54
2023-05-16T19:50:51.530Z,46.40
2023-05-16T19:53:18.499Z,46.41
2023-05-16T19:55:49.092Z,46.29
2023-05-16T19:58:16.638Z,46.38
2023-05-16T20:00:43.703Z,46.49
2023-05-16T20:03:10.891Z,46.66
2023-05-16T20:05:39.146Z,46.84
2023-05-16T20:08:06.601Z,46.94
2023-05-16T20:10:34.824Z,47.27
2023-05-16T20:13:05.180Z,47.43
2023-05-16T20:15:32.444Z,47.52
2023-05-16T20:17:59.479Z,47.50
2023-05-16T20:20:26.672Z,47.45
2023-05-16T20:22:53.603Z,47.40
2023-05-16T20:25:20.654Z,47.40
2023-05-16T20:27:47.849Z,47.35
2023-05-16T20:30:14.886Z,47.31
2023-05-16T20:32:43.165Z,47.47
2023-05-16T20:35:12.062Z,47.27
2023-05-16T20:37:40.839Z,47.38
2023-05-16T20:40:08.744Z,47.34
2023-05-16T20:42:36.065Z,47.42
2023-05-16T20:45:03.795Z,47.58
2023-05-16T20:47:31.362Z,47.58
2023-05-16T20:49:58.750Z,47.54
2023-05-16T20:52:27.334Z,47.59
2023-05-16T20:54:57.897Z,47.89
2023-05-16T20:57:24.986Z,48.02
2023-05-16T20:59:52.007Z,47.90
2023-05-16T21:02:19.004Z,47.98
2023-05-16T21:04:46.026Z,48.04
2023-05-16T21:07:13.093Z,48.10
2023-05-16T21:09:41.488Z,48.06
2023-05-16T21:12:08.718Z,48.10
2023-05-16T21:14:36.173Z,48.34
2023-05-16T21:17:03.265Z,48.46
2023-05-16T21:19:36.820Z,48.60
2023-05-16T21:22:06.484Z,48.70
2023-05-16T21:24:35.256Z,48.84
2023-05-16T21:27:04.537Z,48.80
2023-05-16T21:29:33.024Z,48.69
2023-05-16T21:32:03.083Z,48.74
2023-05-16T21:34:30.099Z,48.77
2023-05-16T21:36:58.151Z,48.85
2023-05-16T21:39:25.288Z,48.89
2023-05-16T21:41:52.244Z,48.79
2023-05-16T21:44:20.242Z,48.78
2023-05-16T21:46:47.311Z,48.71
2023-05-16T21:49:14.331Z,48.74
2023-05-16T21:51:41.454Z,48.71
2023-05-16T21:54:08.413Z,48.81
2023-05-16T21:56:36.200Z,48.87
2023-05-16T21:59:03.060Z,49.03
2023-05-16T22:01:30.003Z,49.02
2023-05-16T22:03:57.774Z,49.08
2023-05-16T22:06:24.930Z,49.12
2023-05-16T22:08:52.984Z,48.94
2023-05-16T22:11:19.826Z,48.91
2023-05-16T22:13:47.357Z,48.79
2023-05-16T22:16:14.884Z,48.80
2023-05-16T22:18:44.740Z,48.89
2023-05-16T22:21:11.859Z,48.93
2023-05-16T22:23:39.113Z,49.15
2023-05-16T22:26:06.152Z,49.34
2023-05-16T22:28:33.144Z,49.07
2023-05-16T22:31:00.518Z,49.06
2023-05-16T22:33:27.566Z,49.09
2023-05-16T22:35:54.778Z,49.27
2023-05-16T22:38:21.642Z,49.33
2023-05-16T22:40:48.636Z,49.40
2023-05-16T22:43:16.331Z,49.44
2023-05-16T22:45:43.169Z,49.36
2023-05-16T22:48:10.220Z,49.39
2023-05-16T22:50:37.889Z,49.39
2023-05-16T22:53:04.828Z,49.34
2023-05-16T22:55:33.505Z,49.44
2023-05-16T22:58:04.357Z,49.37
2023-05-16T23:00:33.039Z,49.31
2023-05-16T23:02:59.944Z,49.35
2023-05-16T23:05:27.074Z,49.18
2023-05-16T23:07:54.304Z,48.81
2023-05-16T23:10:21.140Z,48.76
2023-05-16T23:12:48.270Z,48.66
2023-05-16T23:15:15.139Z,48.61
2023-05-16T23:17:42.090Z,48.47
2023-05-16T23:20:11.374Z,48.49
2023-05-16T23:22:38.670Z,48.35
2023-05-16T23:25:06.486Z,48.34
2023-05-16T23:27:34.083Z,48.23
2023-05-16T23:30:01.044Z,48.38
2023-05-16T23:32:29.288Z,48.42
2023-05-16T23:34:56.193Z,48.49
2023-05-16T23:37:24.613Z,48.44
2023-05-16T23:39:51.469Z,48.47
2023-05-16T23:42:18.304Z,48.61
2023-05-16T23:44:45.850Z,48.73
2023-05-16T23:47:13.088Z,48.68
2023-05-16T23:49:40.356Z,48.66
2023-05-16T23:52:07.336Z,48.65
2023-05-16T23:54:34.245Z,48.65
2023-05-16T23:57:01.161Z,48.69
2023-05-16T23:59:28.062Z,48.75
